sensor_id;sensor_type;location;lat;lon;timestamp;temperature;humidity
65239;SHT30;51827;51.186;6.926;2023-07-31T00:00:36;23.49;59.95
65239;SHT30;51827;51.186;6.926;2023-07-31T00:01:37;23.50;60.00
65239;SHT30;51827;51.186;6.926;2023-07-31T00:02:38;23.49;59.96
65239;SHT30;51827;51.186;6.926;2023-07-31T00:03:38;23.49;60.00
65239;SHT30;51827;51.186;6.926;2023-07-31T00:04:38;23.50;59.99
65239;SHT30;51827;51.186;6.926;2023-07-31T00:05:39;23.50;59.95
65239;SHT30;51827;51.186;6.926;2023-07-31T00:06:48;23.46;59.97
65239;SHT30;51827;51.186;6.926;2023-07-31T00:07:49;23.52;59.99
65239;SHT30;51827;51.186;6.926;2023-07-31T00:08:49;23.47;59.99
65239;SHT30;51827;51.186;6.926;2023-07-31T00:09:49;23.49;60.00
65239;SHT30;51827;51.186;6.926;2023-07-31T00:10:51;23.47;59.97
65239;SHT30;51827;51.186;6.926;2023-07-31T00:11:52;23.49;59.98
65239;SHT30;51827;51.186;6.926;2023-07-31T00:12:52;23.49;60.03
65239;SHT30;51827;51.186;6.926;2023-07-31T00:13:53;23.47;60.03
65239;SHT30;51827;51.186;6.926;2023-07-31T00:14:53;23.50;60.03
65239;SHT30;51827;51.186;6.926;2023-07-31T00:15:54;23.50;59.99
65239;SHT30;51827;51.186;6.926;2023-07-31T00:16:54;23.47;60.02
65239;SHT30;51827;51.186;6.926;2023-07-31T00:17:54;23.47;60.03
65239;SHT30;51827;51.186;6.926;2023-07-31T00:18:54;23.49;59.97
65239;SHT30;51827;51.186;6.926;2023-07-31T00:19:55;23.50;60.00
65239;SHT30;51827;51.186;6.926;2023-07-31T00:20:55;23.50;60.02
65239;SHT30;51827;51.186;6.926;2023-07-31T00:21:55;23.49;60.00
65239;SHT30;51827;51.186;6.926;2023-07-31T00:22:55;23.47;60.01
65239;SHT30;51827;51.186;6.926;2023-07-31T00:23:56;23.50;60.02
65239;SHT30;51827;51.186;6.926;2023-07-31T00:24:56;23.47;60.00
65239;SHT30;51827;51.186;6.926;2023-07-31T00:25:57;23.49;60.05
65239;SHT30;51827;51.186;6.926;2023-07-31T00:26:57;23.47;60.02
65239;SHT30;51827;51.186;6.926;2023-07-31T00:27:57;23.49;60.04
65239;SHT30;51827;51.186;6.926;2023-07-31T00:28:57;23.47;60.03
65239;SHT30;51827;51.186;6.926;2023-07-31T00:29:58;23.49;60.02
65239;SHT30;51827;51.186;6.926;2023-07-31T00:30:58;23.49;60.02
65239;SHT30;51827;51.186;6.926;2023-07-31T00:31:58;23.50;60.04
65239;SHT30;51827;51.186;6.926;2023-07-31T00:32:58;23.52;60.00
65239;SHT30;51827;51.186;6.926;2023-07-31T00:33:59;23.50;60.02
65239;SHT30;51827;51.186;6.926;2023-07-31T00:34:59;23.49;60.02
65239;SHT30;51827;51.186;6.926;2023-07-31T00:35:59;23.50;60.05
65239;SHT30;51827;51.186;6.926;2023-07-31T00:36:59;23.50;60.05
65239;SHT30;51827;51.186;6.926;2023-07-31T00:38:00;23.49;60.06
65239;SHT30;51827;51.186;6.926;2023-07-31T00:39:00;23.47;60.06
65239;SHT30;51827;51.186;6.926;2023-07-31T00:40:00;23.47;60.04
65239;SHT30;51827;51.186;6.926;2023-07-31T00:41:00;23.47;60.09
65239;SHT30;51827;51.186;6.926;2023-07-31T00:42:01;23.47;60.04
65239;SHT30;51827;51.186;6.926;2023-07-31T00:43:01;23.47;60.05
65239;SHT30;51827;51.186;6.926;2023-07-31T00:44:01;23.49;60.04
65239;SHT30;51827;51.186;6.926;2023-07-31T00:45:01;23.46;60.05
65239;SHT30;51827;51.186;6.926;2023-07-31T00:46:02;23.49;60.08
65239;SHT30;51827;51.186;6.926;2023-07-31T00:47:02;23.46;60.06
65239;SHT30;51827;51.186;6.926;2023-07-31T00:48:02;23.47;60.08
65239;SHT30;51827;51.186;6.926;2023-07-31T00:49:03;23.46;60.09
65239;SHT30;51827;51.186;6.926;2023-07-31T00:50:05;23.49;60.03
65239;SHT30;51827;51.186;6.926;2023-07-31T00:51:07;23.47;60.05
65239;SHT30;51827;51.186;6.926;2023-07-31T00:52:09;23.49;60.07
65239;SHT30;51827;51.186;6.926;2023-07-31T00:53:09;23.47;60.07
65239;SHT30;51827;51.186;6.926;2023-07-31T00:54:10;23.49;60.06
65239;SHT30;51827;51.186;6.926;2023-07-31T00:55:11;23.49;60.06
65239;SHT30;51827;51.186;6.926;2023-07-31T00:56:12;23.46;60.06
65239;SHT30;51827;51.186;6.926;2023-07-31T00:57:12;23.46;60.06
65239;SHT30;51827;51.186;6.926;2023-07-31T00:58:12;23.47;60.09
65239;SHT30;51827;51.186;6.926;2023-07-31T00:59:13;23.46;60.08
65239;SHT30;51827;51.186;6.926;2023-07-31T01:00:13;23.47;60.05
65239;SHT30;51827;51.186;6.926;2023-07-31T01:01:13;23.47;60.05
65239;SHT30;51827;51.186;6.926;2023-07-31T01:02:13;23.46;60.05
65239;SHT30;51827;51.186;6.926;2023-07-31T01:03:14;23.46;60.05
65239;SHT30;51827;51.186;6.926;2023-07-31T01:04:14;23.49;60.10
65239;SHT30;51827;51.186;6.926;2023-07-31T01:05:15;23.49;60.08
65239;SHT30;51827;51.186;6.926;2023-07-31T01:07:42;23.49;60.09
65239;SHT30;51827;51.186;6.926;2023-07-31T01:08:54;23.47;60.11
65239;SHT30;51827;51.186;6.926;2023-07-31T01:11:28;23.47;60.08
65239;SHT30;51827;51.186;6.926;2023-07-31T01:12:30;23.46;60.10
65239;SHT30;51827;51.186;6.926;2023-07-31T01:13:31;23.45;60.10
65239;SHT30;51827;51.186;6.926;2023-07-31T01:14:31;23.46;60.11
65239;SHT30;51827;51.186;6.926;2023-07-31T01:15:31;23.45;60.11
65239;SHT30;51827;51.186;6.926;2023-07-31T01:16:32;23.47;60.09
65239;SHT30;51827;51.186;6.926;2023-07-31T01:17:32;23.46;60.11
65239;SHT30;51827;51.186;6.926;2023-07-31T01:18:32;23.46;60.14
65239;SHT30;51827;51.186;6.926;2023-07-31T01:19:33;23.46;60.13
65239;SHT30;51827;51.186;6.926;2023-07-31T01:20:35;23.45;60.12
65239;SHT30;51827;51.186;6.926;2023-07-31T01:24:07;23.46;60.15
65239;SHT30;51827;51.186;6.926;2023-07-31T01:26:55;23.45;60.10
65239;SHT30;51827;51.186;6.926;2023-07-31T01:28:03;23.45;60.13
65239;SHT30;51827;51.186;6.926;2023-07-31T01:29:23;23.47;60.14
65239;SHT30;51827;51.186;6.926;2023-07-31T01:30:28;23.45;60.09
65239;SHT30;51827;51.186;6.926;2023-07-31T01:31:32;23.47;60.12
65239;SHT30;51827;51.186;6.926;2023-07-31T01:32:33;23.45;60.12
65239;SHT30;51827;51.186;6.926;2023-07-31T01:33:34;23.45;60.12
65239;SHT30;51827;51.186;6.926;2023-07-31T01:34:36;23.42;60.11
65239;SHT30;51827;51.186;6.926;2023-07-31T01:35:37;23.45;60.14
65239;SHT30;51827;51.186;6.926;2023-07-31T01:36:38;23.46;60.13
65239;SHT30;51827;51.186;6.926;2023-07-31T01:37:38;23.43;60.12
65239;SHT30;51827;51.186;6.926;2023-07-31T01:38:38;23.46;60.13
65239;SHT30;51827;51.186;6.926;2023-07-31T01:39:38;23.46;60.15
65239;SHT30;51827;51.186;6.926;2023-07-31T01:40:41;23.45;60.13
65239;SHT30;51827;51.186;6.926;2023-07-31T01:41:41;23.46;60.12
65239;SHT30;51827;51.186;6.926;2023-07-31T01:42:42;23.45;60.14
65239;SHT30;51827;51.186;6.926;2023-07-31T01:43:42;23.47;60.15
65239;SHT30;51827;51.186;6.926;2023-07-31T01:44:42;23.45;60.15
65239;SHT30;51827;51.186;6.926;2023-07-31T01:45:42;23.46;60.11
65239;SHT30;51827;51.186;6.926;2023-07-31T01:46:43;23.46;60.12
65239;SHT30;51827;51.186;6.926;2023-07-31T01:47:43;23.46;60.14
65239;SHT30;51827;51.186;6.926;2023-07-31T01:48:43;23.45;60.14
65239;SHT30;51827;51.186;6.926;2023-07-31T01:49:43;23.43;60.13
65239;SHT30;51827;51.186;6.926;2023-07-31T01:50:44;23.46;60.16
65239;SHT30;51827;51.186;6.926;2023-07-31T01:51:44;23.46;60.13
65239;SHT30;51827;51.186;6.926;2023-07-31T01:52:44;23.43;60.14
65239;SHT30;51827;51.186;6.926;2023-07-31T01:53:44;23.46;60.12
65239;SHT30;51827;51.186;6.926;2023-07-31T01:54:45;23.43;60.15
65239;SHT30;51827;51.186;6.926;2023-07-31T01:55:45;23.45;60.15
65239;SHT30;51827;51.186;6.926;2023-07-31T01:56:45;23.43;60.16
65239;SHT30;51827;51.186;6.926;2023-07-31T01:57:45;23.45;60.15
65239;SHT30;51827;51.186;6.926;2023-07-31T01:58:45;23.46;60.11
65239;SHT30;51827;51.186;6.926;2023-07-31T01:59:46;23.43;60.13
65239;SHT30;51827;51.186;6.926;2023-07-31T02:00:46;23.45;60.12
65239;SHT30;51827;51.186;6.926;2023-07-31T02:01:46;23.46;60.17
65239;SHT30;51827;51.186;6.926;2023-07-31T02:02:46;23.43;60.15
65239;SHT30;51827;51.186;6.926;2023-07-31T02:03:47;23.40;60.15
65239;SHT30;51827;51.186;6.926;2023-07-31T02:04:47;23.43;60.15
65239;SHT30;51827;51.186;6.926;2023-07-31T02:05:48;23.45;60.17
65239;SHT30;51827;51.186;6.926;2023-07-31T02:06:49;23.45;60.12
65239;SHT30;51827;51.186;6.926;2023-07-31T02:07:49;23.42;60.13
65239;SHT30;51827;51.186;6.926;2023-07-31T02:08:49;23.43;60.18
65239;SHT30;51827;51.186;6.926;2023-07-31T02:09:50;23.45;60.12
65239;SHT30;51827;51.186;6.926;2023-07-31T02:10:51;23.45;60.12
65239;SHT30;51827;51.186;6.926;2023-07-31T02:11:51;23.43;60.13
65239;SHT30;51827;51.186;6.926;2023-07-31T02:12:52;23.46;60.14
65239;SHT30;51827;51.186;6.926;2023-07-31T02:13:52;23.42;60.14
65239;SHT30;51827;51.186;6.926;2023-07-31T02:14:52;23.45;60.13
65239;SHT30;51827;51.186;6.926;2023-07-31T02:15:52;23.42;60.17
65239;SHT30;51827;51.186;6.926;2023-07-31T02:16:52;23.45;60.12
65239;SHT30;51827;51.186;6.926;2023-07-31T02:17:53;23.45;60.11
65239;SHT30;51827;51.186;6.926;2023-07-31T02:18:53;23.43;60.09
65239;SHT30;51827;51.186;6.926;2023-07-31T02:19:53;23.43;60.12
65239;SHT30;51827;51.186;6.926;2023-07-31T02:20:53;23.42;60.13
65239;SHT30;51827;51.186;6.926;2023-07-31T02:21:54;23.42;60.11
65239;SHT30;51827;51.186;6.926;2023-07-31T02:22:54;23.45;60.11
65239;SHT30;51827;51.186;6.926;2023-07-31T02:23:54;23.45;60.08
65239;SHT30;51827;51.186;6.926;2023-07-31T02:24:54;23.43;60.14
65239;SHT30;51827;51.186;6.926;2023-07-31T02:25:55;23.43;60.13
65239;SHT30;51827;51.186;6.926;2023-07-31T02:26:55;23.43;60.17
65239;SHT30;51827;51.186;6.926;2023-07-31T02:27:55;23.42;60.14
65239;SHT30;51827;51.186;6.926;2023-07-31T02:28:55;23.42;60.12
65239;SHT30;51827;51.186;6.926;2023-07-31T02:29:56;23.43;60.15
65239;SHT30;51827;51.186;6.926;2023-07-31T02:30:56;23.45;60.09
65239;SHT30;51827;51.186;6.926;2023-07-31T02:31:56;23.42;60.12
65239;SHT30;51827;51.186;6.926;2023-07-31T02:32:56;23.45;60.10
65239;SHT30;51827;51.186;6.926;2023-07-31T02:33:57;23.43;60.11
65239;SHT30;51827;51.186;6.926;2023-07-31T02:34:57;23.45;60.10
65239;SHT30;51827;51.186;6.926;2023-07-31T02:35:58;23.45;60.18
65239;SHT30;51827;51.186;6.926;2023-07-31T02:36:59;23.43;60.13
65239;SHT30;51827;51.186;6.926;2023-07-31T02:37:59;23.43;60.12
65239;SHT30;51827;51.186;6.926;2023-07-31T02:38:59;23.42;60.15
65239;SHT30;51827;51.186;6.926;2023-07-31T02:39:59;23.42;60.09
65239;SHT30;51827;51.186;6.926;2023-07-31T02:40:59;23.42;60.12
65239;SHT30;51827;51.186;6.926;2023-07-31T02:42:00;23.42;60.12
65239;SHT30;51827;51.186;6.926;2023-07-31T02:43:00;23.43;60.14
65239;SHT30;51827;51.186;6.926;2023-07-31T02:44:00;23.43;60.12
65239;SHT30;51827;51.186;6.926;2023-07-31T02:45:00;23.42;60.12
65239;SHT30;51827;51.186;6.926;2023-07-31T02:46:01;23.43;60.13
65239;SHT30;51827;51.186;6.926;2023-07-31T02:47:01;23.43;60.09
65239;SHT30;51827;51.186;6.926;2023-07-31T02:48:01;23.40;60.11
65239;SHT30;51827;51.186;6.926;2023-07-31T02:49:01;23.43;60.13
65239;SHT30;51827;51.186;6.926;2023-07-31T02:50:05;23.40;60.12
65239;SHT30;51827;51.186;6.926;2023-07-31T02:51:06;23.42;60.09
65239;SHT30;51827;51.186;6.926;2023-07-31T02:52:06;23.42;60.13
65239;SHT30;51827;51.186;6.926;2023-07-31T02:53:06;23.43;60.13
65239;SHT30;51827;51.186;6.926;2023-07-31T02:54:07;23.42;60.10
65239;SHT30;51827;51.186;6.926;2023-07-31T02:55:07;23.40;60.10
65239;SHT30;51827;51.186;6.926;2023-07-31T02:56:07;23.42;60.15
65239;SHT30;51827;51.186;6.926;2023-07-31T02:57:07;23.42;60.11
65239;SHT30;51827;51.186;6.926;2023-07-31T02:58:08;23.40;60.12
65239;SHT30;51827;51.186;6.926;2023-07-31T02:59:08;23.42;60.11
65239;SHT30;51827;51.186;6.926;2023-07-31T03:00:08;23.43;60.11
65239;SHT30;51827;51.186;6.926;2023-07-31T03:01:09;23.42;60.13
65239;SHT30;51827;51.186;6.926;2023-07-31T03:02:09;23.40;60.15
65239;SHT30;51827;51.186;6.926;2023-07-31T03:03:09;23.40;60.11
65239;SHT30;51827;51.186;6.926;2023-07-31T03:04:09;23.42;60.12
65239;SHT30;51827;51.186;6.926;2023-07-31T03:05:12;23.40;60.12
65239;SHT30;51827;51.186;6.926;2023-07-31T03:06:13;23.40;60.13
65239;SHT30;51827;51.186;6.926;2023-07-31T03:07:13;23.40;60.14
65239;SHT30;51827;51.186;6.926;2023-07-31T03:08:13;23.42;60.12
65239;SHT30;51827;51.186;6.926;2023-07-31T03:09:13;23.40;60.11
65239;SHT30;51827;51.186;6.926;2023-07-31T03:10:14;23.42;60.12
65239;SHT30;51827;51.186;6.926;2023-07-31T03:11:14;23.40;60.12
65239;SHT30;51827;51.186;6.926;2023-07-31T03:12:14;23.40;60.14
65239;SHT30;51827;51.186;6.926;2023-07-31T03:13:14;23.40;60.12
65239;SHT30;51827;51.186;6.926;2023-07-31T03:14:15;23.42;60.11
65239;SHT30;51827;51.186;6.926;2023-07-31T03:15:15;23.42;60.13
65239;SHT30;51827;51.186;6.926;2023-07-31T03:16:15;23.39;60.12
65239;SHT30;51827;51.186;6.926;2023-07-31T03:17:15;23.40;60.14
65239;SHT30;51827;51.186;6.926;2023-07-31T03:18:16;23.42;60.11
65239;SHT30;51827;51.186;6.926;2023-07-31T03:19:16;23.42;60.13
65239;SHT30;51827;51.186;6.926;2023-07-31T03:20:16;23.40;60.12
65239;SHT30;51827;51.186;6.926;2023-07-31T03:21:16;23.40;60.14
65239;SHT30;51827;51.186;6.926;2023-07-31T03:22:17;23.40;60.10
65239;SHT30;51827;51.186;6.926;2023-07-31T03:23:17;23.40;60.13
65239;SHT30;51827;51.186;6.926;2023-07-31T03:24:17;23.42;60.10
65239;SHT30;51827;51.186;6.926;2023-07-31T03:25:17;23.42;60.14
65239;SHT30;51827;51.186;6.926;2023-07-31T03:26:18;23.43;60.13
65239;SHT30;51827;51.186;6.926;2023-07-31T03:27:18;23.40;60.13
65239;SHT30;51827;51.186;6.926;2023-07-31T03:28:18;23.42;60.15
65239;SHT30;51827;51.186;6.926;2023-07-31T03:29:18;23.40;60.13
65239;SHT30;51827;51.186;6.926;2023-07-31T03:30:19;23.39;60.13
65239;SHT30;51827;51.186;6.926;2023-07-31T03:31:19;23.40;60.12
65239;SHT30;51827;51.186;6.926;2023-07-31T03:32:19;23.39;60.15
65239;SHT30;51827;51.186;6.926;2023-07-31T03:33:19;23.42;60.13
65239;SHT30;51827;51.186;6.926;2023-07-31T03:34:20;23.40;60.12
65239;SHT30;51827;51.186;6.926;2023-07-31T03:35:20;23.39;60.10
65239;SHT30;51827;51.186;6.926;2023-07-31T03:36:20;23.38;60.13
65239;SHT30;51827;51.186;6.926;2023-07-31T03:37:20;23.42;60.18
65239;SHT30;51827;51.186;6.926;2023-07-31T03:38:21;23.39;60.15
65239;SHT30;51827;51.186;6.926;2023-07-31T03:39:24;23.39;60.11
65239;SHT30;51827;51.186;6.926;2023-07-31T03:40:26;23.42;60.12
65239;SHT30;51827;51.186;6.926;2023-07-31T03:41:26;23.39;60.09
65239;SHT30;51827;51.186;6.926;2023-07-31T03:42:26;23.40;60.11
65239;SHT30;51827;51.186;6.926;2023-07-31T03:43:27;23.42;60.16
65239;SHT30;51827;51.186;6.926;2023-07-31T03:44:27;23.40;60.12
65239;SHT30;51827;51.186;6.926;2023-07-31T03:45:27;23.39;60.14
65239;SHT30;51827;51.186;6.926;2023-07-31T03:46:28;23.39;60.13
65239;SHT30;51827;51.186;6.926;2023-07-31T03:47:28;23.42;60.16
65239;SHT30;51827;51.186;6.926;2023-07-31T03:48:29;23.40;60.15
65239;SHT30;51827;51.186;6.926;2023-07-31T03:49:29;23.38;60.14
65239;SHT30;51827;51.186;6.926;2023-07-31T03:50:29;23.42;60.18
65239;SHT30;51827;51.186;6.926;2023-07-31T03:51:29;23.40;60.12
65239;SHT30;51827;51.186;6.926;2023-07-31T03:52:30;23.38;60.16
65239;SHT30;51827;51.186;6.926;2023-07-31T03:53:30;23.39;60.15
65239;SHT30;51827;51.186;6.926;2023-07-31T03:54:30;23.39;60.11
65239;SHT30;51827;51.186;6.926;2023-07-31T03:55:30;23.39;60.18
65239;SHT30;51827;51.186;6.926;2023-07-31T03:56:30;23.38;60.14
65239;SHT30;51827;51.186;6.926;2023-07-31T03:57:31;23.39;60.13
65239;SHT30;51827;51.186;6.926;2023-07-31T03:58:31;23.39;60.15
65239;SHT30;51827;51.186;6.926;2023-07-31T03:59:31;23.39;60.15
65239;SHT30;51827;51.186;6.926;2023-07-31T04:00:31;23.40;60.14
65239;SHT30;51827;51.186;6.926;2023-07-31T04:01:32;23.38;60.11
65239;SHT30;51827;51.186;6.926;2023-07-31T04:02:32;23.38;60.16
65239;SHT30;51827;51.186;6.926;2023-07-31T04:03:32;23.39;60.17
65239;SHT30;51827;51.186;6.926;2023-07-31T04:04:33;23.39;60.19
65239;SHT30;51827;51.186;6.926;2023-07-31T04:05:33;23.39;60.16
65239;SHT30;51827;51.186;6.926;2023-07-31T04:06:33;23.39;60.16
65239;SHT30;51827;51.186;6.926;2023-07-31T04:07:33;23.40;60.14
65239;SHT30;51827;51.186;6.926;2023-07-31T04:08:33;23.36;60.15
65239;SHT30;51827;51.186;6.926;2023-07-31T04:09:34;23.36;60.13
65239;SHT30;51827;51.186;6.926;2023-07-31T04:10:34;23.36;60.16
65239;SHT30;51827;51.186;6.926;2023-07-31T04:11:34;23.40;60.16
65239;SHT30;51827;51.186;6.926;2023-07-31T04:12:34;23.38;60.13
65239;SHT30;51827;51.186;6.926;2023-07-31T04:13:35;23.38;60.18
65239;SHT30;51827;51.186;6.926;2023-07-31T04:14:35;23.39;60.17
65239;SHT30;51827;51.186;6.926;2023-07-31T04:15:37;23.39;60.14
65239;SHT30;51827;51.186;6.926;2023-07-31T04:16:38;23.39;60.17
65239;SHT30;51827;51.186;6.926;2023-07-31T04:17:38;23.38;60.17
65239;SHT30;51827;51.186;6.926;2023-07-31T04:18:38;23.36;60.16
65239;SHT30;51827;51.186;6.926;2023-07-31T04:19:38;23.39;60.16
65239;SHT30;51827;51.186;6.926;2023-07-31T04:20:39;23.39;60.18
65239;SHT30;51827;51.186;6.926;2023-07-31T04:21:39;23.38;60.14
65239;SHT30;51827;51.186;6.926;2023-07-31T04:22:39;23.38;60.20
65239;SHT30;51827;51.186;6.926;2023-07-31T04:23:39;23.40;60.14
65239;SHT30;51827;51.186;6.926;2023-07-31T04:24:40;23.39;60.18
65239;SHT30;51827;51.186;6.926;2023-07-31T04:25:40;23.38;60.20
65239;SHT30;51827;51.186;6.926;2023-07-31T04:26:40;23.39;60.18
65239;SHT30;51827;51.186;6.926;2023-07-31T04:27:40;23.39;60.20
65239;SHT30;51827;51.186;6.926;2023-07-31T04:28:41;23.38;60.18
65239;SHT30;51827;51.186;6.926;2023-07-31T04:29:41;23.40;60.20
65239;SHT30;51827;51.186;6.926;2023-07-31T04:30:41;23.36;60.20
65239;SHT30;51827;51.186;6.926;2023-07-31T04:31:41;23.38;60.18
65239;SHT30;51827;51.186;6.926;2023-07-31T04:32:42;23.36;60.21
65239;SHT30;51827;51.186;6.926;2023-07-31T04:33:42;23.34;60.19
65239;SHT30;51827;51.186;6.926;2023-07-31T04:34:42;23.38;60.20
65239;SHT30;51827;51.186;6.926;2023-07-31T04:35:49;23.38;60.17
65239;SHT30;51827;51.186;6.926;2023-07-31T04:36:50;23.38;60.22
65239;SHT30;51827;51.186;6.926;2023-07-31T04:37:50;23.38;60.22
65239;SHT30;51827;51.186;6.926;2023-07-31T04:38:50;23.38;60.21
65239;SHT30;51827;51.186;6.926;2023-07-31T04:39:50;23.38;60.21
65239;SHT30;51827;51.186;6.926;2023-07-31T04:40:51;23.38;60.25
65239;SHT30;51827;51.186;6.926;2023-07-31T04:41:51;23.36;60.23
65239;SHT30;51827;51.186;6.926;2023-07-31T04:42:51;23.36;60.19
65239;SHT30;51827;51.186;6.926;2023-07-31T04:43:51;23.36;60.26
65239;SHT30;51827;51.186;6.926;2023-07-31T04:44:52;23.38;60.22
65239;SHT30;51827;51.186;6.926;2023-07-31T04:45:52;23.38;60.24
65239;SHT30;51827;51.186;6.926;2023-07-31T04:46:52;23.38;60.26
65239;SHT30;51827;51.186;6.926;2023-07-31T04:47:52;23.36;60.22
65239;SHT30;51827;51.186;6.926;2023-07-31T04:48:52;23.34;60.24
65239;SHT30;51827;51.186;6.926;2023-07-31T04:49:53;23.36;60.22
65239;SHT30;51827;51.186;6.926;2023-07-31T04:50:53;23.36;60.24
65239;SHT30;51827;51.186;6.926;2023-07-31T04:51:53;23.34;60.19
65239;SHT30;51827;51.186;6.926;2023-07-31T04:52:53;23.38;60.20
65239;SHT30;51827;51.186;6.926;2023-07-31T04:53:54;23.36;60.27
65239;SHT30;51827;51.186;6.926;2023-07-31T04:54:54;23.38;60.23
65239;SHT30;51827;51.186;6.926;2023-07-31T04:55:54;23.39;60.25
65239;SHT30;51827;51.186;6.926;2023-07-31T04:56:54;23.34;60.23
65239;SHT30;51827;51.186;6.926;2023-07-31T04:57:55;23.38;60.23
65239;SHT30;51827;51.186;6.926;2023-07-31T04:58:55;23.38;60.22
65239;SHT30;51827;51.186;6.926;2023-07-31T04:59:55;23.39;60.22
65239;SHT30;51827;51.186;6.926;2023-07-31T05:00:55;23.38;60.26
65239;SHT30;51827;51.186;6.926;2023-07-31T05:01:55;23.36;60.24
65239;SHT30;51827;51.186;6.926;2023-07-31T05:02:56;23.36;60.26
65239;SHT30;51827;51.186;6.926;2023-07-31T05:03:56;23.38;60.23
65239;SHT30;51827;51.186;6.926;2023-07-31T05:04:56;23.38;60.24
65239;SHT30;51827;51.186;6.926;2023-07-31T05:05:56;23.36;60.20
65239;SHT30;51827;51.186;6.926;2023-07-31T05:06:57;23.36;60.26
65239;SHT30;51827;51.186;6.926;2023-07-31T05:07:57;23.38;60.23
65239;SHT30;51827;51.186;6.926;2023-07-31T05:08:57;23.38;60.26
65239;SHT30;51827;51.186;6.926;2023-07-31T05:09:57;23.34;60.24
65239;SHT30;51827;51.186;6.926;2023-07-31T05:10:58;23.36;60.23
65239;SHT30;51827;51.186;6.926;2023-07-31T05:11:58;23.36;60.24
65239;SHT30;51827;51.186;6.926;2023-07-31T05:12:58;23.36;60.20
65239;SHT30;51827;51.186;6.926;2023-07-31T05:13:58;23.36;60.21
65239;SHT30;51827;51.186;6.926;2023-07-31T05:14:59;23.36;60.24
65239;SHT30;51827;51.186;6.926;2023-07-31T05:15:59;23.34;60.22
65239;SHT30;51827;51.186;6.926;2023-07-31T05:16:59;23.38;60.24
65239;SHT30;51827;51.186;6.926;2023-07-31T05:17:59;23.36;60.22
65239;SHT30;51827;51.186;6.926;2023-07-31T05:19:00;23.39;60.21
65239;SHT30;51827;51.186;6.926;2023-07-31T05:20:00;23.38;60.19
65239;SHT30;51827;51.186;6.926;2023-07-31T05:21:00;23.36;60.22
65239;SHT30;51827;51.186;6.926;2023-07-31T05:22:00;23.38;60.22
65239;SHT30;51827;51.186;6.926;2023-07-31T05:23:01;23.38;60.21
65239;SHT30;51827;51.186;6.926;2023-07-31T05:24:01;23.36;60.22
65239;SHT30;51827;51.186;6.926;2023-07-31T05:25:01;23.34;60.20
65239;SHT30;51827;51.186;6.926;2023-07-31T05:26:05;23.36;60.22
65239;SHT30;51827;51.186;6.926;2023-07-31T05:27:06;23.36;60.19
65239;SHT30;51827;51.186;6.926;2023-07-31T05:28:06;23.34;60.20
65239;SHT30;51827;51.186;6.926;2023-07-31T05:29:06;23.36;60.24
65239;SHT30;51827;51.186;6.926;2023-07-31T05:30:07;23.34;60.23
65239;SHT30;51827;51.186;6.926;2023-07-31T05:31:07;23.38;60.23
65239;SHT30;51827;51.186;6.926;2023-07-31T05:32:08;23.33;60.24
65239;SHT30;51827;51.186;6.926;2023-07-31T05:33:08;23.36;60.22
65239;SHT30;51827;51.186;6.926;2023-07-31T05:34:08;23.36;60.19
65239;SHT30;51827;51.186;6.926;2023-07-31T05:35:08;23.36;60.19
65239;SHT30;51827;51.186;6.926;2023-07-31T05:36:09;23.36;60.20
65239;SHT30;51827;51.186;6.926;2023-07-31T05:37:13;23.34;60.20
65239;SHT30;51827;51.186;6.926;2023-07-31T05:38:13;23.38;60.19
65239;SHT30;51827;51.186;6.926;2023-07-31T05:39:14;23.38;60.19
65239;SHT30;51827;51.186;6.926;2023-07-31T05:40:14;23.33;60.21
65239;SHT30;51827;51.186;6.926;2023-07-31T05:41:15;23.36;60.19
65239;SHT30;51827;51.186;6.926;2023-07-31T05:42:15;23.36;60.17
65239;SHT30;51827;51.186;6.926;2023-07-31T05:43:15;23.36;60.19
65239;SHT30;51827;51.186;6.926;2023-07-31T05:44:15;23.36;60.12
65239;SHT30;51827;51.186;6.926;2023-07-31T05:45:16;23.34;60.16
65239;SHT30;51827;51.186;6.926;2023-07-31T05:46:16;23.34;60.19
65239;SHT30;51827;51.186;6.926;2023-07-31T05:47:16;23.38;60.16
65239;SHT30;51827;51.186;6.926;2023-07-31T05:48:16;23.36;60.14
65239;SHT30;51827;51.186;6.926;2023-07-31T05:49:17;23.34;60.17
65239;SHT30;51827;51.186;6.926;2023-07-31T05:50:17;23.36;60.16
65239;SHT30;51827;51.186;6.926;2023-07-31T05:51:17;23.36;60.20
65239;SHT30;51827;51.186;6.926;2023-07-31T05:52:18;23.33;60.18
65239;SHT30;51827;51.186;6.926;2023-07-31T05:53:18;23.34;60.21
65239;SHT30;51827;51.186;6.926;2023-07-31T05:54:19;23.38;60.20
65239;SHT30;51827;51.186;6.926;2023-07-31T05:55:19;23.34;60.20
65239;SHT30;51827;51.186;6.926;2023-07-31T05:56:19;23.34;60.18
65239;SHT30;51827;51.186;6.926;2023-07-31T05:57:19;23.34;60.22
65239;SHT30;51827;51.186;6.926;2023-07-31T05:58:20;23.34;60.17
65239;SHT30;51827;51.186;6.926;2023-07-31T05:59:20;23.34;60.20
65239;SHT30;51827;51.186;6.926;2023-07-31T06:00:20;23.36;60.16
65239;SHT30;51827;51.186;6.926;2023-07-31T06:01:21;23.33;60.18
65239;SHT30;51827;51.186;6.926;2023-07-31T06:02:21;23.34;60.20
65239;SHT30;51827;51.186;6.926;2023-07-31T06:03:21;23.36;60.18
65239;SHT30;51827;51.186;6.926;2023-07-31T06:04:21;23.36;60.16
65239;SHT30;51827;51.186;6.926;2023-07-31T06:05:22;23.33;60.18
65239;SHT30;51827;51.186;6.926;2023-07-31T06:06:22;23.38;60.19
65239;SHT30;51827;51.186;6.926;2023-07-31T06:07:22;23.34;60.18
65239;SHT30;51827;51.186;6.926;2023-07-31T06:08:22;23.36;60.20
65239;SHT30;51827;51.186;6.926;2023-07-31T06:09:23;23.36;60.15
65239;SHT30;51827;51.186;6.926;2023-07-31T06:10:23;23.33;60.16
65239;SHT30;51827;51.186;6.926;2023-07-31T06:11:23;23.34;60.15
65239;SHT30;51827;51.186;6.926;2023-07-31T06:12:23;23.34;60.18
65239;SHT30;51827;51.186;6.926;2023-07-31T06:13:24;23.33;60.17
65239;SHT30;51827;51.186;6.926;2023-07-31T06:14:24;23.33;60.18
65239;SHT30;51827;51.186;6.926;2023-07-31T06:15:25;23.36;60.15
65239;SHT30;51827;51.186;6.926;2023-07-31T06:16:25;23.34;60.16
65239;SHT30;51827;51.186;6.926;2023-07-31T06:17:26;23.36;60.16
65239;SHT30;51827;51.186;6.926;2023-07-31T06:18:28;23.32;60.14
65239;SHT30;51827;51.186;6.926;2023-07-31T06:19:29;23.36;60.17
65239;SHT30;51827;51.186;6.926;2023-07-31T06:20:29;23.33;60.15
65239;SHT30;51827;51.186;6.926;2023-07-31T06:21:29;23.34;60.15
65239;SHT30;51827;51.186;6.926;2023-07-31T06:22:29;23.34;60.14
65239;SHT30;51827;51.186;6.926;2023-07-31T06:23:30;23.34;60.14
65239;SHT30;51827;51.186;6.926;2023-07-31T06:24:30;23.33;60.15
65239;SHT30;51827;51.186;6.926;2023-07-31T06:25:30;23.34;60.13
65239;SHT30;51827;51.186;6.926;2023-07-31T06:26:31;23.33;60.16
65239;SHT30;51827;51.186;6.926;2023-07-31T06:27:31;23.33;60.12
65239;SHT30;51827;51.186;6.926;2023-07-31T06:28:32;23.33;60.15
65239;SHT30;51827;51.186;6.926;2023-07-31T06:29:32;23.33;60.14